Pays
Station

 

Conditions  météo  pour  Miyakojima  -  Japon    Japon

  
31 °C
    
 
 

METAR pour Miyakojima :

ROMY 230500Z 06008KT 010V090 9999 VCSH SCT019 FEW020TCU 31/25 Q1012

 

Voici le bulletin pour Miyakojima - Japon.
 
Le bulletin a été fait il y a 9 minutes, à 05:00 UTC .
Le vent soufflait à la vitesse de 4.1 mètres par seconde de Est/Nord-est (060°), variant entre Nord (010°) et Est (090°).
 
La température était de 31 °C, avec un point de rosée à 25 °C.
La température ressentie était de 38 °C.
 
La pression atmosphérique était de 1012 hPa.
L'humidité relative était de 70.5%.
 
Il y avait 3 à 4/8ème de nébulosité à une hauteur de 579 mètres et 1 à 2/8ème cumulus congestus de nébulosité à une hauteur de 610 mètres.
 
La visibilité globale était de supérieure à 10 kilomètres.
 
Actuellement averses de à proximité.

 
 
 

Pays :   A   B   C   D   E   F   G   H   I   J   K   L   M   N   O   P   Q   R   S   T   U   V   W   Y   Z

 

Partenaires :  Info Météo avec Met'info
Météo Marine avec MeteoMarine.net
Infos Site  |  Infos Légales  |  Crédits  |  Confidentialité
Contactez-nous  |  Ajouter aux favoris
© 2013-2018 METAR - Tous droits réservés